Time;durP1;ratioP1;P1;durP2;ratioP2;P2;SDS_P1;SDS_P2;PMS_P1;PMS_P2;Temp;Humidity;BMP_temperature;BMP_pressure;BME280_temperature;BME280_humidity;BME280_pressure;Samples;Min_cycle;Max_cycle;Signal;HPM_P1;HPM_P2
2022/11/26 00:02:29;;;;;;;19.35;9.80;;;;;;;;;;5100623;28;20020;-79
2022/11/26 00:04:55;;;;;;;17.42;9.38;;;;;;;;;;5099064;28;20016;-80
2022/11/26 00:07:24;;;;;;;17.48;9.25;;;;;;;;;;5099838;28;20099;-80
2022/11/26 00:09:51;;;;;;;14.52;8.38;;;;;;;;;;5098377;28;20031;-79
2022/11/26 00:12:22;;;;;;;20.15;8.27;;;;;;;;;;5100545;28;20024;-80
2022/11/26 00:14:47;;;;;;;15.98;8.23;;;;;;;;;;5100615;28;20028;-79
2022/11/26 00:17:14;;;;;;;16.75;8.15;;;;;;;;;;5100074;28;20031;-80
2022/11/26 00:19:40;;;;;;;17.95;7.93;;;;;;;;;;5099696;28;20049;-80
2022/11/26 00:22:18;;;;;;;13.13;7.90;;;;;;;;;;5099327;28;20028;-80
2022/11/26 00:24:43;;;;;;;18.38;7.78;;;;;;;;;;5101403;28;20058;-79
2022/11/26 00:27:10;;;;;;;22.00;8.95;;;;;;;;;;5102254;28;20016;-79
2022/11/26 00:29:36;;;;;;;17.83;7.88;;;;;;;;;;5101934;28;20024;-79
2022/11/26 00:32:01;;;;;;;20.08;8.43;;;;;;;;;;5102915;28;20074;-79
2022/11/26 00:34:26;;;;;;;25.60;8.38;;;;;;;;;;5102487;28;20384;-79
2022/11/26 00:36:51;;;;;;;15.48;8.65;;;;;;;;;;5101678;28;20022;-79
2022/11/26 00:39:22;;;;;;;14.32;7.97;;;;;;;;;;5102443;28;20477;-79
2022/11/26 00:41:49;;;;;;;18.13;8.68;;;;;;;;;;5103442;28;20464;-79
2022/11/26 00:44:21;;;;;;;16.88;8.77;;;;;;;;;;5101231;28;20077;-79
2022/11/26 00:46:46;;;;;;;18.02;8.10;;;;;;;;;;5102226;28;20026;-79
2022/11/26 00:49:11;;;;;;;17.00;8.32;;;;;;;;;;5100546;28;20024;-79
2022/11/26 00:51:37;;;;;;;20.52;8.30;;;;;;;;;;5103543;28;20034;-79
2022/11/26 00:54:04;;;;;;;16.83;8.02;;;;;;;;;;5102398;28;20038;-80
2022/11/26 00:56:30;;;;;;;17.35;8.02;;;;;;;;;;5098472;28;20458;-80
2022/11/26 00:58:55;;;;;;;18.60;8.70;;;;;;;;;;5099515;28;20427;-80
2022/11/26 01:01:24;;;;;;;15.95;7.53;;;;;;;;;;5099793;28;20107;-80
2022/11/26 01:03:50;;;;;;;16.02;7.28;;;;;;;;;;5100241;28;20555;-80
2022/11/26 01:06:30;;;;;;;16.50;8.10;;;;;;;;;;5100897;28;20052;-79
2022/11/26 01:08:55;;;;;;;19.27;7.85;;;;;;;;;;5098592;28;20024;-80
2022/11/26 01:11:22;;;;;;;18.33;7.32;;;;;;;;;;5098706;28;20081;-80
2022/11/26 01:13:50;;;;;;;15.20;7.03;;;;;;;;;;5097704;28;20032;-80
2022/11/26 01:16:24;;;;;;;15.65;7.40;;;;;;;;;;5098651;28;20032;-79
2022/11/26 01:18:55;;;;;;;17.50;8.05;;;;;;;;;;5098101;28;20035;-80
2022/11/26 01:21:22;;;;;;;15.75;7.90;;;;;;;;;;5100761;28;20063;-79
2022/11/26 01:23:48;;;;;;;16.70;7.45;;;;;;;;;;5100453;28;20020;-80
2022/11/26 01:26:26;;;;;;;14.30;7.50;;;;;;;;;;5100881;28;20016;-80
2022/11/26 01:28:52;;;;;;;15.00;6.95;;;;;;;;;;5101660;28;20024;-80
2022/11/26 01:31:23;;;;;;;19.15;7.18;;;;;;;;;;5100294;28;20024;-79
2022/11/26 01:33:49;;;;;;;13.45;7.00;;;;;;;;;;5101021;28;20111;-79
2022/11/26 01:36:17;;;;;;;16.27;7.90;;;;;;;;;;5101062;28;20051;-80
2022/11/26 01:38:42;;;;;;;17.27;7.55;;;;;;;;;;5100695;28;20028;-79
2022/11/26 01:41:34;;;;;;;13.57;7.38;;;;;;;;;;5100504;28;20035;-80
2022/11/26 01:43:59;;;;;;;19.85;7.80;;;;;;;;;;5100617;28;20054;-79
2022/11/26 01:46:25;;;;;;;17.23;7.45;;;;;;;;;;5100121;28;20016;-80
2022/11/26 01:48:51;;;;;;;20.13;7.82;;;;;;;;;;5099570;28;20053;-80
2022/11/26 01:51:23;;;;;;;18.67;8.18;;;;;;;;;;5100859;28;20024;-80
2022/11/26 01:53:56;;;;;;;17.58;8.38;;;;;;;;;;5101132;28;20062;-80
2022/11/26 01:56:32;;;;;;;17.00;8.63;;;;;;;;;;5098893;28;20027;-80
2022/11/26 01:59:19;;;;;;;20.55;8.10;;;;;;;;;;5098806;28;20034;-79
2022/11/26 02:01:45;;;;;;;22.10;7.43;;;;;;;;;;5097846;28;20024;-79
2022/11/26 02:04:19;;;;;;;22.50;7.72;;;;;;;;;;5096815;28;20080;-80
2022/11/26 02:06:47;;;;;;;18.60;8.23;;;;;;;;;;5099404;28;20016;-79
2022/11/26 02:09:14;;;;;;;17.73;8.23;;;;;;;;;;5097641;28;20035;-79
2022/11/26 02:11:39;;;;;;;22.48;8.10;;;;;;;;;;5098588;28;20027;-80
2022/11/26 02:14:10;;;;;;;21.20;7.63;;;;;;;;;;5099273;28;20434;-80
2022/11/26 02:16:48;;;;;;;22.35;8.15;;;;;;;;;;5099231;28;20035;-80
2022/11/26 02:19:41;;;;;;;17.70;7.75;;;;;;;;;;5099911;28;20040;-80
2022/11/26 02:22:09;;;;;;;19.58;7.95;;;;;;;;;;5099193;28;20066;-80
2022/11/26 02:24:54;;;;;;;22.45;7.78;;;;;;;;;;5099457;28;20020;-80
2022/11/26 02:27:34;;;;;;;20.25;8.23;;;;;;;;;;5099395;28;20020;-79
2022/11/26 02:30:06;;;;;;;17.27;8.25;;;;;;;;;;5099481;28;20380;-79
2022/11/26 02:32:46;;;;;;;20.63;8.73;;;;;;;;;;5100363;28;20024;-79
2022/11/26 02:35:31;;;;;;;23.73;8.77;;;;;;;;;;5099810;28;20032;-79
2022/11/26 02:38:02;;;;;;;25.58;8.27;;;;;;;;;;5101748;28;20028;-79
2022/11/26 02:40:27;;;;;;;20.15;8.48;;;;;;;;;;5101528;28;20047;-79
2022/11/26 02:42:53;;;;;;;21.40;8.20;;;;;;;;;;5100866;28;20024;-79
2022/11/26 02:45:29;;;;;;;24.95;9.23;;;;;;;;;;5099981;28;20115;-79
2022/11/26 02:47:57;;;;;;;17.25;8.32;;;;;;;;;;5099950;28;20468;-79
2022/11/26 02:50:31;;;;;;;23.17;7.80;;;;;;;;;;5098987;28;20048;-79
2022/11/26 02:52:58;;;;;;;23.40;8.23;;;;;;;;;;5100424;28;20032;-80
2022/11/26 02:55:32;;;;;;;16.23;7.63;;;;;;;;;;5100207;28;20032;-80
2022/11/26 02:57:59;;;;;;;20.17;7.57;;;;;;;;;;5099846;28;20404;-80
2022/11/26 03:00:25;;;;;;;21.45;8.07;;;;;;;;;;5099946;28;20036;-80
2022/11/26 03:02:58;;;;;;;20.55;8.32;;;;;;;;;;5100627;28;20083;-80
2022/11/26 03:05:25;;;;;;;18.13;8.40;;;;;;;;;;5102285;28;20031;-80
2022/11/26 03:07:52;;;;;;;23.80;8.13;;;;;;;;;;5100884;28;20040;-80
2022/11/26 03:10:24;;;;;;;17.73;8.25;;;;;;;;;;5100304;28;20073;-80
2022/11/26 03:12:50;;;;;;;24.58;7.75;;;;;;;;;;5100229;28;20027;-80
2022/11/26 03:15:15;;;;;;;22.98;8.35;;;;;;;;;;5101817;28;20032;-80
2022/11/26 03:17:40;;;;;;;31.25;8.38;;;;;;;;;;5101314;28;20020;-79
2022/11/26 03:20:06;;;;;;;17.05;8.38;;;;;;;;;;5101505;28;20077;-79
2022/11/26 03:22:31;;;;;;;22.63;8.27;;;;;;;;;;5101823;28;20469;-79
2022/11/26 03:24:56;;;;;;;26.30;8.55;;;;;;;;;;5101928;28;20107;-79
2022/11/26 03:27:22;;;;;;;29.58;8.90;;;;;;;;;;5101376;28;20016;-79
2022/11/26 03:29:47;;;;;;;26.88;8.82;;;;;;;;;;5099881;28;20111;-79
2022/11/26 03:32:12;;;;;;;23.70;8.63;;;;;;;;;;5100921;28;20031;-79
2022/11/26 03:34:37;;;;;;;18.52;8.70;;;;;;;;;;5101938;28;20495;-79
2022/11/26 03:37:03;;;;;;;19.70;8.63;;;;;;;;;;5101847;28;20380;-79
2022/11/26 03:39:28;;;;;;;24.08;8.30;;;;;;;;;;5100652;28;20118;-79
2022/11/26 03:41:53;;;;;;;22.10;8.32;;;;;;;;;;5099751;28;20020;-79
2022/11/26 03:44:19;;;;;;;19.13;8.60;;;;;;;;;;5101402;28;20473;-79
2022/11/26 03:46:44;;;;;;;21.33;7.53;;;;;;;;;;5101303;28;20020;-79
2022/11/26 03:49:09;;;;;;;19.98;8.32;;;;;;;;;;5101082;28;20026;-80
2022/11/26 03:51:34;;;;;;;17.08;7.57;;;;;;;;;;5100899;28;20419;-80
2022/11/26 03:54:00;;;;;;;18.48;7.10;;;;;;;;;;5100150;28;20075;-80
2022/11/26 03:56:25;;;;;;;24.63;7.43;;;;;;;;;;5101652;28;20016;-80
2022/11/26 03:58:50;;;;;;;14.57;6.38;;;;;;;;;;5101491;28;20032;-80
2022/11/26 04:01:16;;;;;;;24.10;7.95;;;;;;;;;;5105141;28;20024;-80
2022/11/26 04:03:41;;;;;;;21.23;7.10;;;;;;;;;;5106227;28;20043;-80
2022/11/26 04:06:07;;;;;;;21.73;7.82;;;;;;;;;;5105705;28;20047;-80
2022/11/26 04:08:32;;;;;;;16.33;6.97;;;;;;;;;;5105683;28;20125;-80
2022/11/26 04:10:58;;;;;;;20.30;7.45;;;;;;;;;;5105217;28;20049;-80
2022/11/26 04:13:23;;;;;;;16.67;7.63;;;;;;;;;;5105626;28;20103;-80
2022/11/26 04:15:48;;;;;;;17.70;7.38;;;;;;;;;;5105191;28;20032;-80
2022/11/26 04:18:14;;;;;;;19.27;7.45;;;;;;;;;;5105054;28;20024;-80
2022/11/26 04:20:40;;;;;;;19.55;8.43;;;;;;;;;;5105286;28;20027;-80
2022/11/26 04:23:05;;;;;;;21.23;8.32;;;;;;;;;;5105344;28;20039;-79
2022/11/26 04:25:30;;;;;;;18.23;8.23;;;;;;;;;;5103444;28;20397;-79
2022/11/26 04:27:56;;;;;;;30.73;8.60;;;;;;;;;;5103849;28;20027;-80
2022/11/26 04:30:21;;;;;;;18.42;8.55;;;;;;;;;;5103404;28;20024;-80
2022/11/26 04:32:47;;;;;;;19.23;8.95;;;;;;;;;;5103877;28;20031;-80
2022/11/26 04:35:12;;;;;;;18.08;8.15;;;;;;;;;;5102015;28;20024;-80
2022/11/26 04:37:37;;;;;;;20.77;9.20;;;;;;;;;;5100192;28;20051;-80
2022/11/26 04:40:03;;;;;;;19.83;8.85;;;;;;;;;;5101996;28;20028;-80
2022/11/26 04:42:28;;;;;;;27.83;10.15;;;;;;;;;;5103470;28;20028;-80
2022/11/26 04:44:54;;;;;;;15.80;9.25;;;;;;;;;;5103265;28;20020;-80
2022/11/26 04:47:19;;;;;;;18.23;8.38;;;;;;;;;;5104205;28;20024;-80
2022/11/26 04:49:44;;;;;;;21.88;8.80;;;;;;;;;;5103215;28;20504;-80
2022/11/26 04:52:09;;;;;;;23.10;9.10;;;;;;;;;;5102660;28;20035;-80
2022/11/26 04:54:35;;;;;;;20.17;9.15;;;;;;;;;;5104983;28;20084;-80
2022/11/26 04:57:00;;;;;;;23.35;10.10;;;;;;;;;;5104570;28;20043;-80
2022/11/26 04:59:25;;;;;;;23.52;9.98;;;;;;;;;;5103554;28;20153;-80
2022/11/26 05:01:51;;;;;;;24.02;9.40;;;;;;;;;;5104429;28;20036;-80
2022/11/26 05:04:16;;;;;;;24.73;9.90;;;;;;;;;;5104118;28;20059;-80
2022/11/26 05:06:41;;;;;;;22.08;9.95;;;;;;;;;;5102118;28;20022;-80
2022/11/26 05:09:07;;;;;;;23.52;10.07;;;;;;;;;;5102359;28;20035;-80
2022/11/26 05:11:32;;;;;;;26.38;10.20;;;;;;;;;;5103792;28;20024;-80
2022/11/26 05:13:57;;;;;;;18.38;9.55;;;;;;;;;;5103616;28;20020;-80
2022/11/26 05:16:23;;;;;;;22.88;9.80;;;;;;;;;;5105127;28;20054;-80
2022/11/26 05:18:48;;;;;;;23.85;10.07;;;;;;;;;;5104856;28;20031;-80
2022/11/26 05:21:13;;;;;;;25.83;10.30;;;;;;;;;;5106054;28;20463;-80
2022/11/26 05:23:39;;;;;;;24.98;10.57;;;;;;;;;;5102993;28;20028;-80
2022/11/26 05:26:04;;;;;;;22.75;10.05;;;;;;;;;;5102760;28;20119;-80
2022/11/26 05:28:29;;;;;;;30.95;10.43;;;;;;;;;;5102605;28;20031;-79
2022/11/26 05:30:59;;;;;;;23.83;9.75;;;;;;;;;;5102594;28;20024;-80
2022/11/26 05:33:25;;;;;;;29.10;10.18;;;;;;;;;;5103230;28;20032;-80
2022/11/26 05:35:51;;;;;;;21.52;10.80;;;;;;;;;;5101370;28;20027;-80
2022/11/26 05:38:16;;;;;;;26.90;10.40;;;;;;;;;;5101273;28;20023;-80
2022/11/26 05:40:41;;;;;;;23.02;9.68;;;;;;;;;;5103661;28;20032;-80
2022/11/26 05:43:06;;;;;;;26.33;10.20;;;;;;;;;;5102761;28;20099;-80
2022/11/26 05:45:32;;;;;;;21.65;10.68;;;;;;;;;;5102924;28;20036;-79
2022/11/26 05:47:57;;;;;;;33.58;10.95;;;;;;;;;;5102098;28;20012;-79
2022/11/26 05:50:22;;;;;;;31.55;10.93;;;;;;;;;;5102850;28;20477;-80
2022/11/26 05:52:48;;;;;;;22.67;10.40;;;;;;;;;;5102302;28;20020;-79
2022/11/26 05:55:15;;;;;;;25.85;10.30;;;;;;;;;;5102018;28;20035;-80
2022/11/26 05:57:40;;;;;;;25.85;10.88;;;;;;;;;;5102181;28;20561;-80
2022/11/26 06:00:06;;;;;;;21.80;9.93;;;;;;;;;;5101949;28;20063;-80
2022/11/26 06:02:31;;;;;;;20.83;9.68;;;;;;;;;;5102514;28;20028;-81
2022/11/26 06:04:57;;;;;;;24.23;9.95;;;;;;;;;;5101570;28;20016;-80
2022/11/26 06:07:22;;;;;;;25.90;10.23;;;;;;;;;;5102509;28;20491;-80
2022/11/26 06:09:47;;;;;;;28.48;10.50;;;;;;;;;;5103499;28;20028;-80
2022/11/26 06:12:12;;;;;;;26.88;11.25;;;;;;;;;;5104095;28;20023;-79
2022/11/26 06:14:38;;;;;;;26.02;10.23;;;;;;;;;;5104045;28;20421;-80
2022/11/26 06:17:03;;;;;;;22.00;10.43;;;;;;;;;;5101926;28;20020;-80
2022/11/26 06:19:28;;;;;;;25.17;10.20;;;;;;;;;;5103416;28;20028;-80
2022/11/26 06:21:54;;;;;;;30.23;10.60;;;;;;;;;;5103176;28;20063;-80
2022/11/26 06:24:19;;;;;;;30.40;10.48;;;;;;;;;;5102680;28;20019;-79
2022/11/26 06:26:44;;;;;;;27.50;11.02;;;;;;;;;;5103787;28;20016;-80
2022/11/26 06:29:09;;;;;;;29.20;10.93;;;;;;;;;;5104148;28;20016;-79
2022/11/26 06:31:35;;;;;;;27.40;11.15;;;;;;;;;;5103299;28;20027;-80
2022/11/26 06:34:00;;;;;;;25.65;10.75;;;;;;;;;;5103204;28;20387;-79
2022/11/26 06:36:25;;;;;;;22.50;11.00;;;;;;;;;;5102564;28;20020;-80
2022/11/26 06:38:51;;;;;;;40.53;11.82;;;;;;;;;;5103072;28;20488;-80
2022/11/26 06:41:16;;;;;;;38.58;11.57;;;;;;;;;;5102995;28;20027;-80
2022/11/26 06:43:41;;;;;;;27.63;11.23;;;;;;;;;;5103731;28;20028;-80
2022/11/26 06:46:10;;;;;;;27.33;11.73;;;;;;;;;;5102589;28;20066;-80
2022/11/26 06:48:36;;;;;;;31.13;11.13;;;;;;;;;;5102994;28;20016;-81
2022/11/26 06:51:11;;;;;;;37.50;11.45;;;;;;;;;;5101066;28;20024;-81
2022/11/26 06:53:37;;;;;;;31.52;10.93;;;;;;;;;;5101608;28;20020;-81
2022/11/26 06:56:05;;;;;;;26.40;11.30;;;;;;;;;;5100875;28;20027;-80
2022/11/26 06:58:30;;;;;;;28.52;11.20;;;;;;;;;;5101882;28;20066;-79
2022/11/26 07:00:56;;;;;;;25.45;10.75;;;;;;;;;;5101720;28;20032;-80
2022/11/26 07:03:23;;;;;;;43.45;12.88;;;;;;;;;;5101879;28;20036;-80
2022/11/26 07:05:48;;;;;;;30.73;10.55;;;;;;;;;;5099983;28;20504;-79
2022/11/26 07:08:13;;;;;;;28.55;11.07;;;;;;;;;;5100973;28;20032;-79
2022/11/26 07:10:39;;;;;;;23.33;10.40;;;;;;;;;;5101477;28;20020;-80
2022/11/26 07:13:04;;;;;;;27.33;10.95;;;;;;;;;;5099554;28;20055;-80
2022/11/26 07:15:29;;;;;;;23.40;10.27;;;;;;;;;;5100623;28;20436;-80
2022/11/26 07:17:55;;;;;;;24.88;10.75;;;;;;;;;;5101371;28;20099;-79
2022/11/26 07:20:20;;;;;;;24.73;10.68;;;;;;;;;;5101190;28;20024;-79
2022/11/26 07:22:46;;;;;;;34.22;10.68;;;;;;;;;;5100246;28;20027;-80
2022/11/26 07:25:11;;;;;;;22.17;10.38;;;;;;;;;;5103326;28;20028;-80
2022/11/26 07:27:36;;;;;;;25.77;10.50;;;;;;;;;;5101289;28;20054;-80
2022/11/26 07:30:02;;;;;;;22.73;9.63;;;;;;;;;;5102240;28;20024;-80
2022/11/26 07:32:28;;;;;;;19.35;10.02;;;;;;;;;;5102852;28;20445;-80
2022/11/26 07:34:54;;;;;;;33.85;9.88;;;;;;;;;;5106327;28;20047;-80
2022/11/26 07:37:19;;;;;;;26.20;9.95;;;;;;;;;;5106833;28;20023;-80
2022/11/26 07:39:46;;;;;;;24.67;9.30;;;;;;;;;;5107440;28;20032;-80
2022/11/26 07:42:12;;;;;;;18.33;9.43;;;;;;;;;;5106785;28;20028;-80
2022/11/26 07:44:37;;;;;;;21.10;9.27;;;;;;;;;;5105558;28;20024;-80
2022/11/26 07:47:03;;;;;;;22.25;8.38;;;;;;;;;;5106311;28;20392;-79
2022/11/26 07:49:28;;;;;;;25.73;10.13;;;;;;;;;;5106599;28;20487;-80
2022/11/26 07:51:53;;;;;;;24.70;9.30;;;;;;;;;;5105776;28;20170;-79
2022/11/26 07:54:18;;;;;;;28.05;9.07;;;;;;;;;;5107319;28;20023;-80
2022/11/26 07:56:44;;;;;;;39.13;9.55;;;;;;;;;;5105665;28;20112;-79
2022/11/26 07:59:10;;;;;;;25.92;9.27;;;;;;;;;;5106785;28;20093;-80
2022/11/26 08:01:35;;;;;;;28.08;8.85;;;;;;;;;;5108211;28;20477;-80
2022/11/26 08:04:04;;;;;;;22.45;9.25;;;;;;;;;;5108415;28;20035;-81
2022/11/26 08:06:29;;;;;;;20.95;7.93;;;;;;;;;;5108399;28;20099;-79
2022/11/26 08:08:55;;;;;;;24.58;8.80;;;;;;;;;;5108580;28;20024;-80
2022/11/26 08:11:25;;;;;;;24.92;9.38;;;;;;;;;;5106944;28;20028;-80
2022/11/26 08:13:57;;;;;;;22.80;8.07;;;;;;;;;;5107059;28;20020;-80
2022/11/26 08:16:22;;;;;;;22.23;8.63;;;;;;;;;;5107357;28;20036;-80
2022/11/26 08:18:51;;;;;;;24.75;9.13;;;;;;;;;;5106645;28;20024;-79
2022/11/26 08:21:16;;;;;;;25.02;8.40;;;;;;;;;;5109565;28;20024;-80
2022/11/26 08:23:41;;;;;;;22.05;8.45;;;;;;;;;;5109280;28;20027;-80
2022/11/26 08:26:09;;;;;;;20.02;8.18;;;;;;;;;;5108031;28;20020;-79
2022/11/26 08:28:35;;;;;;;22.35;8.23;;;;;;;;;;5107747;28;20036;-80
2022/11/26 08:31:05;;;;;;;24.70;9.20;;;;;;;;;;5108244;28;20031;-81
2022/11/26 08:33:31;;;;;;;19.30;8.13;;;;;;;;;;5108520;28;20016;-81
2022/11/26 08:35:56;;;;;;;25.00;8.65;;;;;;;;;;5109961;28;20447;-81
2022/11/26 08:38:22;;;;;;;20.33;8.18;;;;;;;;;;5109151;28;20026;-80
2022/11/26 08:40:47;;;;;;;26.77;7.85;;;;;;;;;;5107304;28;20054;-80
2022/11/26 08:43:13;;;;;;;23.15;7.82;;;;;;;;;;5108751;28;20024;-80
2022/11/26 08:45:38;;;;;;;26.25;7.97;;;;;;;;;;5106160;28;20031;-79
2022/11/26 08:48:03;;;;;;;27.42;7.63;;;;;;;;;;5107440;28;20016;-81
2022/11/26 08:50:29;;;;;;;21.73;7.00;;;;;;;;;;5108092;28;20020;-80
2022/11/26 08:52:54;;;;;;;21.15;6.85;;;;;;;;;;5108305;28;20030;-81
2022/11/26 08:55:20;;;;;;;14.57;5.45;;;;;;;;;;5107523;28;20031;-81
2022/11/26 08:57:46;;;;;;;21.13;6.57;;;;;;;;;;5106466;28;20020;-80
2022/11/26 09:00:11;;;;;;;20.27;6.47;;;;;;;;;;5108960;28;20268;-80
2022/11/26 09:02:36;;;;;;;20.48;6.25;;;;;;;;;;5107827;28;20020;-80
2022/11/26 09:05:02;;;;;;;15.98;5.75;;;;;;;;;;5105976;28;20031;-81
2022/11/26 09:07:28;;;;;;;19.13;6.15;;;;;;;;;;5108063;28;20016;-80
2022/11/26 09:09:53;;;;;;;24.20;6.88;;;;;;;;;;5105422;28;20039;-80
2022/11/26 09:12:18;;;;;;;20.50;6.47;;;;;;;;;;5107780;28;20024;-80
2022/11/26 09:14:44;;;;;;;19.63;6.82;;;;;;;;;;5107442;28;20081;-81
2022/11/26 09:17:10;;;;;;;14.60;4.97;;;;;;;;;;5107300;28;20027;-80
2022/11/26 09:19:36;;;;;;;17.27;5.78;;;;;;;;;;5105746;28;20083;-80
2022/11/26 09:22:01;;;;;;;22.50;6.40;;;;;;;;;;5105891;28;20536;-80
2022/11/26 09:24:26;;;;;;;20.70;6.20;;;;;;;;;;5107022;28;20103;-81
2022/11/26 09:26:54;;;;;;;14.75;5.82;;;;;;;;;;5107963;28;20354;-80
2022/11/26 09:29:22;;;;;;;19.50;5.40;;;;;;;;;;5105804;28;20024;-80
2022/11/26 09:31:48;;;;;;;17.20;5.93;;;;;;;;;;5107423;28;20024;-81
2022/11/26 09:34:14;;;;;;;19.55;6.63;;;;;;;;;;5105620;28;20056;-80
2022/11/26 09:36:40;;;;;;;15.82;5.57;;;;;;;;;;5105672;28;20027;-81
2022/11/26 09:39:06;;;;;;;13.02;5.07;;;;;;;;;;5108194;28;20115;-81
2022/11/26 09:41:59;;;;;;;16.92;5.57;;;;;;;;;;5108166;28;20050;-81
2022/11/26 09:44:39;;;;;;;19.80;5.22;;;;;;;;;;5107777;28;20035;-82
2022/11/26 09:47:21;;;;;;;16.75;5.10;;;;;;;;;;5107592;28;20051;-80
2022/11/26 09:50:11;;;;;;;15.18;4.72;;;;;;;;;;5106527;28;20042;-80
2022/11/26 09:52:45;;;;;;;13.57;4.45;;;;;;;;;;5107288;28;20080;-81
2022/11/26 09:55:20;;;;;;;12.20;3.97;;;;;;;;;;5106310;28;20028;-81
2022/11/26 09:57:50;;;;;;;16.77;5.10;;;;;;;;;;5106022;28;20073;-81
2022/11/26 10:00:39;;;;;;;20.15;5.10;;;;;;;;;;5107290;28;20035;-81
2022/11/26 10:03:15;;;;;;;12.65;4.53;;;;;;;;;;5106408;28;20042;-81
2022/11/26 10:05:46;;;;;;;13.18;5.05;;;;;;;;;;5107545;28;20020;-80
2022/11/26 10:08:38;;;;;;;14.13;4.72;;;;;;;;;;5106564;28;20071;-80
2022/11/26 10:11:17;;;;;;;14.38;4.97;;;;;;;;;;5106247;28;20061;-80
2022/11/26 10:14:08;;;;;;;16.50;5.00;;;;;;;;;;5104977;28;20031;-81
2022/11/26 10:17:07;;;;;;;9.82;4.55;;;;;;;;;;5105922;28;20050;-80
2022/11/26 10:19:39;;;;;;;15.73;5.07;;;;;;;;;;5108068;28;20036;-80
2022/11/26 10:22:17;;;;;;;11.73;4.80;;;;;;;;;;5107506;28;20025;-81
2022/11/26 10:24:43;;;;;;;19.08;4.63;;;;;;;;;;5105295;28;20028;-79
2022/11/26 10:27:12;;;;;;;17.05;5.07;;;;;;;;;;5104782;28;20028;-81
2022/11/26 10:29:41;;;;;;;10.88;4.63;;;;;;;;;;5105874;28;20067;-82
2022/11/26 10:32:27;;;;;;;13.88;4.70;;;;;;;;;;5105773;28;20091;-81
2022/11/26 10:34:57;;;;;;;9.88;3.80;;;;;;;;;;5106007;28;20036;-81
2022/11/26 10:37:24;;;;;;;15.35;4.10;;;;;;;;;;5104549;28;20020;-80
2022/11/26 10:39:56;;;;;;;12.43;3.60;;;;;;;;;;5105916;28;20035;-81
2022/11/26 10:42:22;;;;;;;13.68;3.42;;;;;;;;;;5106240;28;20500;-80
2022/11/26 10:44:50;;;;;;;10.90;3.00;;;;;;;;;;5104936;28;20100;-80
2022/11/26 10:47:22;;;;;;;13.18;3.28;;;;;;;;;;5105863;28;20102;-79
2022/11/26 10:49:49;;;;;;;11.82;3.35;;;;;;;;;;5106598;28;20024;-81
2022/11/26 10:52:19;;;;;;;5.63;2.67;;;;;;;;;;5106160;28;20020;-80
2022/11/26 10:54:44;;;;;;;12.88;3.15;;;;;;;;;;5106378;28;20020;-80
2022/11/26 10:57:17;;;;;;;11.15;2.95;;;;;;;;;;5106536;28;20099;-80
2022/11/26 10:59:42;;;;;;;13.82;3.33;;;;;;;;;;5104541;28;20024;-80
2022/11/26 11:02:43;;;;;;;7.03;2.67;;;;;;;;;;5105587;28;20058;-81
2022/11/26 11:05:08;;;;;;;13.52;3.38;;;;;;;;;;5106337;28;20048;-81
2022/11/26 11:07:36;;;;;;;11.45;2.83;;;;;;;;;;5104392;28;20479;-80
2022/11/26 11:10:02;;;;;;;8.63;2.67;;;;;;;;;;5107166;28;20053;-81
2022/11/26 11:12:27;;;;;;;11.63;3.03;;;;;;;;;;5106137;28;20027;-81
2022/11/26 11:14:52;;;;;;;13.30;3.13;;;;;;;;;;5107803;28;20260;-80
2022/11/26 11:17:28;;;;;;;10.82;3.00;;;;;;;;;;5105414;28;20102;-81
2022/11/26 11:20:22;;;;;;;13.82;3.35;;;;;;;;;;5083673;28;20398;-80
2022/11/26 11:22:56;;;;;;;11.60;3.00;;;;;;;;;;5082820;28;20032;-80
2022/11/26 11:25:24;;;;;;;11.23;3.00;;;;;;;;;;5080989;28;20029;-80
2022/11/26 11:27:50;;;;;;;11.90;2.70;;;;;;;;;;5082299;28;20025;-80
2022/11/26 11:30:26;;;;;;;11.77;3.08;;;;;;;;;;5082509;28;20031;-80
2022/11/26 11:32:56;;;;;;;9.55;2.80;;;;;;;;;;5083139;28;20060;-80
2022/11/26 11:35:30;;;;;;;17.60;3.00;;;;;;;;;;5082462;28;20039;-79
2022/11/26 11:37:56;;;;;;;12.85;3.45;;;;;;;;;;5081766;28;20055;-79
2022/11/26 11:40:26;;;;;;;8.05;2.60;;;;;;;;;;5082521;28;20029;-80
2022/11/26 11:43:00;;;;;;;15.05;2.70;;;;;;;;;;5081475;28;20099;-80
2022/11/26 11:45:28;;;;;;;;;;;;;;;;;;5081578;28;20033;-81
2022/11/26 11:47:57;;;;;;;8.35;2.60;;;;;;;;;;5081001;28;19908;-80
2022/11/26 11:50:32;;;;;;;11.43;2.97;;;;;;;;;;5079753;28;20097;-80
2022/11/26 11:53:17;;;;;;;15.95;2.70;;;;;;;;;;5081310;28;20111;-81
2022/11/26 11:56:11;;;;;;;10.43;2.42;;;;;;;;;;5080411;28;20456;-80
2022/11/26 11:59:07;;;;;;;16.77;2.45;;;;;;;;;;5079388;28;20047;-80
2022/11/26 12:02:00;;;;;;;15.27;2.72;;;;;;;;;;5079392;28;20480;-80
2022/11/26 12:04:46;;;;;;;15.57;2.53;;;;;;;;;;5080482;28;20048;-81
2022/11/26 12:07:35;;;;;;;9.88;2.70;;;;;;;;;;5080578;28;20029;-81
2022/11/26 12:10:01;;;;;;;11.35;2.67;;;;;;;;;;5079985;28;20116;-81
2022/11/26 12:12:56;;;;;;;9.13;2.73;;;;;;;;;;5079933;28;20485;-81
2022/11/26 12:15:43;;;;;;;14.13;2.90;;;;;;;;;;5077896;28;20634;-81
2022/11/26 12:18:32;;;;;;;12.63;2.72;;;;;;;;;;5079323;28;20025;-80
2022/11/26 12:21:24;;;;;;;11.20;2.65;;;;;;;;;;5080254;28;20092;-81
2022/11/26 12:23:56;;;;;;;16.92;2.60;;;;;;;;;;5078061;28;20025;-81
2022/11/26 12:26:26;;;;;;;13.48;2.92;;;;;;;;;;5079297;28;20135;-81
2022/11/26 12:29:01;;;;;;;14.15;2.63;;;;;;;;;;5079087;28;20029;-80
2022/11/26 12:31:38;;;;;;;13.00;2.63;;;;;;;;;;5064445;28;20412;-80
2022/11/26 12:34:11;;;;;;;7.38;2.58;;;;;;;;;;5066267;28;20040;-80
2022/11/26 12:36:56;;;;;;;9.77;2.90;;;;;;;;;;5064871;28;20111;-80
2022/11/26 12:39:45;;;;;;;12.27;2.65;;;;;;;;;;5062828;28;20031;-80
2022/11/26 12:42:18;;;;;;;13.55;2.42;;;;;;;;;;5062732;28;20126;-80
2022/11/26 12:44:48;;;;;;;6.50;3.00;;;;;;;;;;5063385;28;20031;-80
2022/11/26 12:47:24;;;;;;;13.73;2.95;;;;;;;;;;5062960;28;20513;-81
2022/11/26 12:50:14;;;;;;;12.70;3.00;;;;;;;;;;5063444;28;20029;-80
2022/11/26 12:52:46;;;;;;;15.35;2.83;;;;;;;;;;5062858;28;20032;-80
2022/11/26 12:55:19;;;;;;;10.32;2.35;;;;;;;;;;5062355;28;20028;-81
2022/11/26 12:57:53;;;;;;;6.85;2.45;;;;;;;;;;5063001;28;20021;-81
2022/11/26 13:00:27;;;;;;;8.50;2.55;;;;;;;;;;5062104;28;20533;-81
2022/11/26 13:02:52;;;;;;;14.20;3.00;;;;;;;;;;5061457;28;20036;-81
2022/11/26 13:05:32;;;;;;;12.23;2.88;;;;;;;;;;5063199;28;20033;-81
2022/11/26 13:08:35;;;;;;;6.40;2.67;;;;;;;;;;5061838;28;20021;-81
2022/11/26 13:11:06;;;;;;;8.85;3.25;;;;;;;;;;5062632;28;20466;-80
2022/11/26 13:13:49;;;;;;;11.65;2.70;;;;;;;;;;5061862;28;20166;-81
2022/11/26 13:16:17;;;;;;;11.32;2.75;;;;;;;;;;5063622;28;20167;-81
2022/11/26 13:18:48;;;;;;;12.55;2.65;;;;;;;;;;5062096;28;20021;-80
2022/11/26 13:21:43;;;;;;;13.15;2.67;;;;;;;;;;5062488;28;20037;-81
2022/11/26 13:24:18;;;;;;;11.18;2.72;;;;;;;;;;5062428;28;20017;-80
2022/11/26 13:27:22;;;;;;;8.82;2.85;;;;;;;;;;5061981;28;20079;-81
2022/11/26 13:29:56;;;;;;;11.18;2.47;;;;;;;;;;5061306;28;20047;-80
2022/11/26 13:32:50;;;;;;;11.02;2.90;;;;;;;;;;5061654;28;20033;-80
2022/11/26 13:35:36;;;;;;;13.13;2.58;;;;;;;;;;5061749;28;20083;-80
2022/11/26 13:38:27;;;;;;;15.45;2.70;;;;;;;;;;5059796;28;20025;-81
2022/11/26 13:41:35;;;;;;;7.95;2.40;;;;;;;;;;5060697;28;20397;-81
2022/11/26 13:44:25;;;;;;;11.07;2.95;;;;;;;;;;5059485;28;20020;-81
2022/11/26 13:46:58;;;;;;;9.38;2.30;;;;;;;;;;5060184;28;20070;-80
2022/11/26 13:49:38;;;;;;;8.85;2.47;;;;;;;;;;5061764;28;20017;-80
2022/11/26 13:52:11;;;;;;;15.18;2.40;;;;;;;;;;5059725;28;20385;-82
2022/11/26 13:54:44;;;;;;;13.07;2.92;;;;;;;;;;5062475;28;20035;-81
2022/11/26 13:57:13;;;;;;;12.40;2.65;;;;;;;;;;5062723;28;20033;-80
2022/11/26 13:59:47;;;;;;;9.93;2.70;;;;;;;;;;5062307;28;20024;-80
2022/11/26 14:02:42;;;;;;;10.27;2.80;;;;;;;;;;5062735;28;20036;-81
2022/11/26 14:05:15;;;;;;;11.82;2.88;;;;;;;;;;5061744;28;20028;-81
2022/11/26 14:07:42;;;;;;;7.55;2.60;;;;;;;;;;5062318;28;20024;-80
2022/11/26 14:10:33;;;;;;;16.02;3.00;;;;;;;;;;5060400;28;20470;-82
2022/11/26 14:13:01;;;;;;;11.40;2.70;;;;;;;;;;5060557;28;20029;-82
2022/11/26 14:15:41;;;;;;;9.50;2.78;;;;;;;;;;5058597;28;20111;-81
2022/11/26 14:18:15;;;;;;;11.38;3.50;;;;;;;;;;5057589;28;20127;-80
2022/11/26 14:20:59;;;;;;;9.80;3.35;;;;;;;;;;5058047;28;20056;-81
2022/11/26 14:23:40;;;;;;;11.40;2.85;;;;;;;;;;5057592;28;20052;-80
2022/11/26 14:26:11;;;;;;;16.02;3.05;;;;;;;;;;5057516;28;20079;-80
2022/11/26 14:28:37;;;;;;;14.70;3.13;;;;;;;;;;5059147;28;20025;-80
2022/11/26 14:31:29;;;;;;;12.25;3.78;;;;;;;;;;5057289;28;20025;-80
2022/11/26 14:33:58;;;;;;;11.52;3.40;;;;;;;;;;5060140;28;20068;-81
2022/11/26 14:36:27;;;;;;;10.63;3.13;;;;;;;;;;5058959;28;20028;-81
2022/11/26 14:39:09;;;;;;;12.95;4.05;;;;;;;;;;5060631;28;20032;-80
2022/11/26 14:41:51;;;;;;;13.70;3.45;;;;;;;;;;5061647;28;20116;-80
2022/11/26 14:44:17;;;;;;;14.63;3.38;;;;;;;;;;5061862;28;20029;-80
2022/11/26 14:46:45;;;;;;;10.90;3.17;;;;;;;;;;5060711;28;20541;-80
2022/11/26 14:49:23;;;;;;;21.42;3.50;;;;;;;;;;5062411;28;20516;-81